sensor_id;sensor_type;location;lat;lon;timestamp;temperature;humidity
51253;DHT22;38936;47.808;19.936;2022-09-13T00:00:31;11.00;99.90
51253;DHT22;38936;47.808;19.936;2022-09-13T00:02:57;10.90;99.90
51253;DHT22;38936;47.808;19.936;2022-09-13T00:05:22;10.80;99.90
51253;DHT22;38936;47.808;19.936;2022-09-13T00:07:48;10.80;99.90
51253;DHT22;38936;47.808;19.936;2022-09-13T00:10:14;10.80;99.90
51253;DHT22;38936;47.808;19.936;2022-09-13T00:12:40;10.80;99.90
51253;DHT22;38936;47.808;19.936;2022-09-13T00:15:06;10.80;99.90
51253;DHT22;38936;47.808;19.936;2022-09-13T00:17:31;10.80;99.90
51253;DHT22;38936;47.808;19.936;2022-09-13T00:19:57;10.80;99.90
51253;DHT22;38936;47.808;19.936;2022-09-13T00:22:23;10.80;99.90
51253;DHT22;38936;47.808;19.936;2022-09-13T00:24:48;10.80;99.90
51253;DHT22;38936;47.808;19.936;2022-09-13T00:27:14;10.80;99.90
51253;DHT22;38936;47.808;19.936;2022-09-13T00:29:39;10.80;99.90
51253;DHT22;38936;47.808;19.936;2022-09-13T00:32:05;10.70;99.90
51253;DHT22;38936;47.808;19.936;2022-09-13T00:34:30;10.70;99.90
51253;DHT22;38936;47.808;19.936;2022-09-13T00:36:56;10.80;99.90
51253;DHT22;38936;47.808;19.936;2022-09-13T00:39:22;10.80;99.90
51253;DHT22;38936;47.808;19.936;2022-09-13T00:41:47;10.70;99.90
51253;DHT22;38936;47.808;19.936;2022-09-13T00:46:57;10.70;99.90
51253;DHT22;38936;47.808;19.936;2022-09-13T00:49:27;10.80;99.90
51253;DHT22;38936;47.808;19.936;2022-09-13T00:51:57;10.80;99.90
51253;DHT22;38936;47.808;19.936;2022-09-13T00:54:28;10.80;99.90
51253;DHT22;38936;47.808;19.936;2022-09-13T00:56:58;10.80;99.90
51253;DHT22;38936;47.808;19.936;2022-09-13T00:59:31;10.90;99.90
51253;DHT22;38936;47.808;19.936;2022-09-13T01:01:57;10.90;99.90
51253;DHT22;38936;47.808;19.936;2022-09-13T01:04:28;10.90;99.90
51253;DHT22;38936;47.808;19.936;2022-09-13T01:06:58;11.00;99.90
51253;DHT22;38936;47.808;19.936;2022-09-13T01:09:25;10.90;99.90
51253;DHT22;38936;47.808;19.936;2022-09-13T01:11:59;11.00;99.90
51253;DHT22;38936;47.808;19.936;2022-09-13T01:14:30;11.00;99.90
51253;DHT22;38936;47.808;19.936;2022-09-13T01:16:56;11.00;99.90
51253;DHT22;38936;47.808;19.936;2022-09-13T01:19:22;11.00;99.90
51253;DHT22;38936;47.808;19.936;2022-09-13T01:30:23;11.30;99.90
51253;DHT22;38936;47.808;19.936;2022-09-13T01:33:15;11.30;99.90
51253;DHT22;38936;47.808;19.936;2022-09-13T01:44:28;11.40;99.90
51253;DHT22;38936;47.808;19.936;2022-09-13T01:47:13;11.40;99.90
51253;DHT22;38936;47.808;19.936;2022-09-13T01:49:52;11.40;99.90
51253;DHT22;38936;47.808;19.936;2022-09-13T01:57:37;11.40;99.90
51253;DHT22;38936;47.808;19.936;2022-09-13T02:00:12;11.40;99.90
51253;DHT22;38936;47.808;19.936;2022-09-13T02:02:48;11.40;99.90
51253;DHT22;38936;47.808;19.936;2022-09-13T02:08:31;11.40;99.90
51253;DHT22;38936;47.808;19.936;2022-09-13T02:11:10;11.30;99.90
51253;DHT22;38936;47.808;19.936;2022-09-13T02:13:46;11.30;99.90
51253;DHT22;38936;47.808;19.936;2022-09-13T02:16:29;11.30;99.90
51253;DHT22;38936;47.808;19.936;2022-09-13T02:19:00;11.20;99.90
51253;DHT22;38936;47.808;19.936;2022-09-13T02:21:30;11.10;99.90
51253;DHT22;38936;47.808;19.936;2022-09-13T02:24:06;11.00;99.90
51253;DHT22;38936;47.808;19.936;2022-09-13T02:26:34;11.00;99.90
51253;DHT22;38936;47.808;19.936;2022-09-13T02:29:06;11.00;99.90
51253;DHT22;38936;47.808;19.936;2022-09-13T02:31:40;10.90;99.90
51253;DHT22;38936;47.808;19.936;2022-09-13T02:34:16;10.90;99.90
51253;DHT22;38936;47.808;19.936;2022-09-13T02:36:45;10.80;99.90
51253;DHT22;38936;47.808;19.936;2022-09-13T02:39:15;10.70;99.90
51253;DHT22;38936;47.808;19.936;2022-09-13T02:41:47;10.60;99.90
51253;DHT22;38936;47.808;19.936;2022-09-13T02:44:27;10.60;99.90
51253;DHT22;38936;47.808;19.936;2022-09-13T02:52:57;10.30;99.90
51253;DHT22;38936;47.808;19.936;2022-09-13T02:58:20;10.30;99.90
51253;DHT22;38936;47.808;19.936;2022-09-13T03:00:50;10.20;99.90
51253;DHT22;38936;47.808;19.936;2022-09-13T03:03:15;10.30;99.90
51253;DHT22;38936;47.808;19.936;2022-09-13T03:05:42;10.20;99.90
51253;DHT22;38936;47.808;19.936;2022-09-13T03:08:10;10.20;99.90
51253;DHT22;38936;47.808;19.936;2022-09-13T03:29:16;9.90;99.90
51253;DHT22;38936;47.808;19.936;2022-09-13T03:32:11;9.90;99.90
51253;DHT22;38936;47.808;19.936;2022-09-13T03:37:51;9.80;99.90
51253;DHT22;38936;47.808;19.936;2022-09-13T03:40:47;9.80;99.90
51253;DHT22;38936;47.808;19.936;2022-09-13T03:43:29;9.80;99.90
51253;DHT22;38936;47.808;19.936;2022-09-13T03:46:03;9.70;99.90
51253;DHT22;38936;47.808;19.936;2022-09-13T03:48:33;9.70;99.90
51253;DHT22;38936;47.808;19.936;2022-09-13T03:51:00;9.70;99.90
51253;DHT22;38936;47.808;19.936;2022-09-13T03:53:26;9.70;99.90
51253;DHT22;38936;47.808;19.936;2022-09-13T03:55:52;9.70;99.90
51253;DHT22;38936;47.808;19.936;2022-09-13T03:58:21;9.70;99.90
51253;DHT22;38936;47.808;19.936;2022-09-13T04:00:47;9.70;99.90
51253;DHT22;38936;47.808;19.936;2022-09-13T04:03:14;9.70;99.90
51253;DHT22;38936;47.808;19.936;2022-09-13T04:05:40;9.60;99.90
51253;DHT22;38936;47.808;19.936;2022-09-13T04:08:06;9.60;99.90
51253;DHT22;38936;47.808;19.936;2022-09-13T04:10:33;9.60;99.90
51253;DHT22;38936;47.808;19.936;2022-09-13T04:12:59;9.60;99.90
51253;DHT22;38936;47.808;19.936;2022-09-13T04:15:28;9.60;99.90
51253;DHT22;38936;47.808;19.936;2022-09-13T04:17:55;9.60;99.90
51253;DHT22;38936;47.808;19.936;2022-09-13T04:20:21;9.60;99.90
51253;DHT22;38936;47.808;19.936;2022-09-13T04:22:54;9.60;99.90
51253;DHT22;38936;47.808;19.936;2022-09-13T04:25:21;9.50;99.90
51253;DHT22;38936;47.808;19.936;2022-09-13T04:27:47;9.50;99.90
51253;DHT22;38936;47.808;19.936;2022-09-13T04:30:13;9.60;99.90
51253;DHT22;38936;47.808;19.936;2022-09-13T04:32:42;9.60;99.90
51253;DHT22;38936;47.808;19.936;2022-09-13T04:35:09;9.50;99.90
51253;DHT22;38936;47.808;19.936;2022-09-13T04:37:35;9.50;99.90
51253;DHT22;38936;47.808;19.936;2022-09-13T04:40:00;9.60;99.90
51253;DHT22;38936;47.808;19.936;2022-09-13T04:42:26;9.60;99.90
51253;DHT22;38936;47.808;19.936;2022-09-13T04:44:51;9.60;99.90
51253;DHT22;38936;47.808;19.936;2022-09-13T04:47:17;9.70;99.90
51253;DHT22;38936;47.808;19.936;2022-09-13T04:49:43;9.70;99.90
51253;DHT22;38936;47.808;19.936;2022-09-13T04:52:09;9.80;99.90
51253;DHT22;38936;47.808;19.936;2022-09-13T04:54:34;10.10;99.90
51253;DHT22;38936;47.808;19.936;2022-09-13T04:57:00;10.50;99.90
51253;DHT22;38936;47.808;19.936;2022-09-13T04:59:25;10.60;99.90
51253;DHT22;38936;47.808;19.936;2022-09-13T05:01:52;10.60;99.90
51253;DHT22;38936;47.808;19.936;2022-09-13T05:04:17;10.60;99.90
51253;DHT22;38936;47.808;19.936;2022-09-13T05:06:43;10.60;99.90
51253;DHT22;38936;47.808;19.936;2022-09-13T05:09:10;10.50;99.90
51253;DHT22;38936;47.808;19.936;2022-09-13T05:11:37;10.60;99.90
51253;DHT22;38936;47.808;19.936;2022-09-13T05:14:03;10.60;99.90
51253;DHT22;38936;47.808;19.936;2022-09-13T05:16:31;10.70;99.90
51253;DHT22;38936;47.808;19.936;2022-09-13T05:18:58;10.70;99.90
51253;DHT22;38936;47.808;19.936;2022-09-13T05:21:24;10.90;99.90
51253;DHT22;38936;47.808;19.936;2022-09-13T05:23:51;11.30;99.90
51253;DHT22;38936;47.808;19.936;2022-09-13T05:26:17;11.90;99.90
51253;DHT22;38936;47.808;19.936;2022-09-13T05:28:42;12.70;99.90
51253;DHT22;38936;47.808;19.936;2022-09-13T05:31:20;13.40;99.90
51253;DHT22;38936;47.808;19.936;2022-09-13T05:33:51;14.00;99.90
51253;DHT22;38936;47.808;19.936;2022-09-13T05:36:17;14.50;99.90
51253;DHT22;38936;47.808;19.936;2022-09-13T05:38:42;15.10;99.90
51253;DHT22;38936;47.808;19.936;2022-09-13T05:41:08;15.40;99.90
51253;DHT22;38936;47.808;19.936;2022-09-13T05:43:35;15.70;99.90
51253;DHT22;38936;47.808;19.936;2022-09-13T05:46:09;15.90;99.90
51253;DHT22;38936;47.808;19.936;2022-09-13T05:48:36;16.00;99.90
51253;DHT22;38936;47.808;19.936;2022-09-13T05:51:06;16.10;99.90
51253;DHT22;38936;47.808;19.936;2022-09-13T05:53:34;16.30;99.90
51253;DHT22;38936;47.808;19.936;2022-09-13T05:55:59;16.20;99.90
51253;DHT22;38936;47.808;19.936;2022-09-13T05:58:25;16.30;99.90
51253;DHT22;38936;47.808;19.936;2022-09-13T06:00:55;16.40;99.90
51253;DHT22;38936;47.808;19.936;2022-09-13T06:03:22;16.40;99.90
51253;DHT22;38936;47.808;19.936;2022-09-13T06:05:48;16.50;99.90
51253;DHT22;38936;47.808;19.936;2022-09-13T06:08:14;16.80;99.90
51253;DHT22;38936;47.808;19.936;2022-09-13T06:10:39;17.10;99.90
51253;DHT22;38936;47.808;19.936;2022-09-13T06:13:05;17.50;99.90
51253;DHT22;38936;47.808;19.936;2022-09-13T06:15:31;18.00;99.90
51253;DHT22;38936;47.808;19.936;2022-09-13T06:17:56;18.50;99.90
51253;DHT22;38936;47.808;19.936;2022-09-13T06:20:23;19.20;99.60
51253;DHT22;38936;47.808;19.936;2022-09-13T06:22:48;19.90;98.00
51253;DHT22;38936;47.808;19.936;2022-09-13T06:25:14;20.30;96.10
51253;DHT22;38936;47.808;19.936;2022-09-13T06:27:40;20.70;95.10
51253;DHT22;38936;47.808;19.936;2022-09-13T06:30:07;21.30;94.10
51253;DHT22;38936;47.808;19.936;2022-09-13T06:32:34;21.50;92.80
51253;DHT22;38936;47.808;19.936;2022-09-13T06:34:59;22.00;91.20
51253;DHT22;38936;47.808;19.936;2022-09-13T06:37:25;22.30;90.10
51253;DHT22;38936;47.808;19.936;2022-09-13T06:39:51;22.90;87.00
51253;DHT22;38936;47.808;19.936;2022-09-13T06:42:16;23.30;84.10
51253;DHT22;38936;47.808;19.936;2022-09-13T06:44:42;23.60;82.40
51253;DHT22;38936;47.808;19.936;2022-09-13T06:47:10;24.00;80.50
51253;DHT22;38936;47.808;19.936;2022-09-13T06:49:36;24.50;76.70
51253;DHT22;38936;47.808;19.936;2022-09-13T06:52:02;24.80;72.80
51253;DHT22;38936;47.808;19.936;2022-09-13T06:54:28;25.00;69.80
51253;DHT22;38936;47.808;19.936;2022-09-13T06:56:53;25.30;68.80
51253;DHT22;38936;47.808;19.936;2022-09-13T06:59:19;25.70;66.60
51253;DHT22;38936;47.808;19.936;2022-09-13T07:01:45;25.90;64.90
51253;DHT22;38936;47.808;19.936;2022-09-13T07:04:16;26.00;63.20
51253;DHT22;38936;47.808;19.936;2022-09-13T07:06:45;26.10;61.60
51253;DHT22;38936;47.808;19.936;2022-09-13T07:09:14;26.50;61.80
51253;DHT22;38936;47.808;19.936;2022-09-13T07:11:42;26.70;59.80
51253;DHT22;38936;47.808;19.936;2022-09-13T07:14:16;26.80;59.20
51253;DHT22;38936;47.808;19.936;2022-09-13T07:16:43;27.20;58.70
51253;DHT22;38936;47.808;19.936;2022-09-13T07:19:16;27.30;56.50
51253;DHT22;38936;47.808;19.936;2022-09-13T07:21:42;27.50;56.00
51253;DHT22;38936;47.808;19.936;2022-09-13T07:24:08;27.20;56.10
51253;DHT22;38936;47.808;19.936;2022-09-13T07:26:34;27.60;55.60
51253;DHT22;38936;47.808;19.936;2022-09-13T07:29:03;27.80;54.40
51253;DHT22;38936;47.808;19.936;2022-09-13T07:31:34;28.10;53.70
51253;DHT22;38936;47.808;19.936;2022-09-13T07:34:04;28.00;53.40
51253;DHT22;38936;47.808;19.936;2022-09-13T07:36:31;28.30;53.30
51253;DHT22;38936;47.808;19.936;2022-09-13T07:38:57;28.30;51.90
51253;DHT22;38936;47.808;19.936;2022-09-13T07:41:25;28.40;51.60
51253;DHT22;38936;47.808;19.936;2022-09-13T07:43:51;28.60;51.40
51253;DHT22;38936;47.808;19.936;2022-09-13T07:46:19;29.20;48.80
51253;DHT22;38936;47.808;19.936;2022-09-13T07:48:46;29.20;47.80
51253;DHT22;38936;47.808;19.936;2022-09-13T07:51:17;29.60;48.30
51253;DHT22;38936;47.808;19.936;2022-09-13T07:53:44;29.80;48.20
51253;DHT22;38936;47.808;19.936;2022-09-13T07:58:38;30.30;47.40
51253;DHT22;38936;47.808;19.936;2022-09-13T08:01:11;30.50;45.80
51253;DHT22;38936;47.808;19.936;2022-09-13T08:03:37;30.10;45.80
51253;DHT22;38936;47.808;19.936;2022-09-13T08:06:04;30.00;46.70
51253;DHT22;38936;47.808;19.936;2022-09-13T08:08:31;29.90;46.20
51253;DHT22;38936;47.808;19.936;2022-09-13T08:10:58;30.00;47.50
51253;DHT22;38936;47.808;19.936;2022-09-13T08:13:24;30.10;46.70
51253;DHT22;38936;47.808;19.936;2022-09-13T08:15:49;30.00;45.70
51253;DHT22;38936;47.808;19.936;2022-09-13T08:18:18;30.10;46.40
51253;DHT22;38936;47.808;19.936;2022-09-13T08:20:44;30.30;45.70
51253;DHT22;38936;47.808;19.936;2022-09-13T08:23:12;30.40;45.60
51253;DHT22;38936;47.808;19.936;2022-09-13T08:25:39;30.30;44.60
51253;DHT22;38936;47.808;19.936;2022-09-13T08:28:09;30.10;43.50
51253;DHT22;38936;47.808;19.936;2022-09-13T08:30:36;30.10;44.10
51253;DHT22;38936;47.808;19.936;2022-09-13T08:33:05;30.00;44.10
51253;DHT22;38936;47.808;19.936;2022-09-13T08:35:32;30.00;44.10
51253;DHT22;38936;47.808;19.936;2022-09-13T08:37:58;30.10;43.80
51253;DHT22;38936;47.808;19.936;2022-09-13T08:40:27;29.90;43.50
51253;DHT22;38936;47.808;19.936;2022-09-13T08:42:57;29.90;43.80
51253;DHT22;38936;47.808;19.936;2022-09-13T08:45:27;29.70;44.20
51253;DHT22;38936;47.808;19.936;2022-09-13T08:47:57;29.60;44.10
51253;DHT22;38936;47.808;19.936;2022-09-13T08:50:33;29.70;44.60
51253;DHT22;38936;47.808;19.936;2022-09-13T08:58:27;29.70;43.50
51253;DHT22;38936;47.808;19.936;2022-09-13T09:01:06;29.70;43.70
51253;DHT22;38936;47.808;19.936;2022-09-13T09:03:47;29.80;43.90
51253;DHT22;38936;47.808;19.936;2022-09-13T09:06:17;29.70;43.60
51253;DHT22;38936;47.808;19.936;2022-09-13T09:09:02;29.60;43.20
51253;DHT22;38936;47.808;19.936;2022-09-13T09:11:47;29.70;43.20
51253;DHT22;38936;47.808;19.936;2022-09-13T09:14:34;29.70;42.70
51253;DHT22;38936;47.808;19.936;2022-09-13T09:17:03;29.60;42.70
51253;DHT22;38936;47.808;19.936;2022-09-13T09:19:36;29.80;43.80
51253;DHT22;38936;47.808;19.936;2022-09-13T09:22:12;29.80;43.60
51253;DHT22;38936;47.808;19.936;2022-09-13T09:24:39;30.00;43.20
51253;DHT22;38936;47.808;19.936;2022-09-13T09:27:17;29.80;42.70
51253;DHT22;38936;47.808;19.936;2022-09-13T09:29:44;29.80;42.60
51253;DHT22;38936;47.808;19.936;2022-09-13T09:35:12;29.50;43.40
51253;DHT22;38936;47.808;19.936;2022-09-13T09:37:45;29.50;43.10
51253;DHT22;38936;47.808;19.936;2022-09-13T09:40:13;29.70;44.40
51253;DHT22;38936;47.808;19.936;2022-09-13T09:42:45;30.00;43.60
51253;DHT22;38936;47.808;19.936;2022-09-13T09:45:32;29.70;42.90
51253;DHT22;38936;47.808;19.936;2022-09-13T09:48:04;29.60;43.00
51253;DHT22;38936;47.808;19.936;2022-09-13T09:50:38;29.10;43.20
51253;DHT22;38936;47.808;19.936;2022-09-13T09:53:13;28.50;44.20
51253;DHT22;38936;47.808;19.936;2022-09-13T09:55:44;28.70;45.00
51253;DHT22;38936;47.808;19.936;2022-09-13T09:58:11;28.60;44.30
51253;DHT22;38936;47.808;19.936;2022-09-13T10:00:55;28.90;43.10
51253;DHT22;38936;47.808;19.936;2022-09-13T10:03:29;29.10;43.10
51253;DHT22;38936;47.808;19.936;2022-09-13T10:06:13;29.40;43.70
51253;DHT22;38936;47.808;19.936;2022-09-13T10:08:40;29.70;42.70
51253;DHT22;38936;47.808;19.936;2022-09-13T10:11:07;29.70;43.30
51253;DHT22;38936;47.808;19.936;2022-09-13T10:13:33;29.70;43.30
51253;DHT22;38936;47.808;19.936;2022-09-13T10:16:04;29.90;42.50
51253;DHT22;38936;47.808;19.936;2022-09-13T10:18:35;30.20;42.90
51253;DHT22;38936;47.808;19.936;2022-09-13T10:21:16;30.00;42.20
51253;DHT22;38936;47.808;19.936;2022-09-13T10:23:45;29.40;43.10
51253;DHT22;38936;47.808;19.936;2022-09-13T10:26:15;28.80;43.20
51253;DHT22;38936;47.808;19.936;2022-09-13T10:29:04;28.10;44.80
51253;DHT22;38936;47.808;19.936;2022-09-13T10:31:43;27.50;44.90
51253;DHT22;38936;47.808;19.936;2022-09-13T10:34:14;27.10;46.60
51253;DHT22;38936;47.808;19.936;2022-09-13T10:37:03;26.70;47.00
51253;DHT22;38936;47.808;19.936;2022-09-13T10:39:33;26.30;47.70
51253;DHT22;38936;47.808;19.936;2022-09-13T10:42:05;26.00;48.10
51253;DHT22;38936;47.808;19.936;2022-09-13T10:44:45;25.60;49.50
51253;DHT22;38936;47.808;19.936;2022-09-13T10:47:26;25.40;50.20
51253;DHT22;38936;47.808;19.936;2022-09-13T10:49:54;25.20;49.30
51253;DHT22;38936;47.808;19.936;2022-09-13T10:52:41;25.00;50.50
51253;DHT22;38936;47.808;19.936;2022-09-13T10:57:45;24.70;49.50
51253;DHT22;38936;47.808;19.936;2022-09-13T11:00:17;24.50;49.90
51253;DHT22;38936;47.808;19.936;2022-09-13T11:03:09;24.40;50.70
51253;DHT22;38936;47.808;19.936;2022-09-13T11:14:49;24.60;51.00
51253;DHT22;38936;47.808;19.936;2022-09-13T11:23:10;24.60;49.70
51253;DHT22;38936;47.808;19.936;2022-09-13T11:25:50;24.60;50.40
51253;DHT22;38936;47.808;19.936;2022-09-13T11:33:53;24.20;50.80
51253;DHT22;38936;47.808;19.936;2022-09-13T11:36:45;24.40;50.40
51253;DHT22;38936;47.808;19.936;2022-09-13T11:39:18;24.40;50.70
51253;DHT22;38936;47.808;19.936;2022-09-13T11:56:19;24.70;49.50
51253;DHT22;38936;47.808;19.936;2022-09-13T11:58:16;24.90;49.80
51253;DHT22;38936;47.808;19.936;2022-09-13T12:00:47;24.80;49.70
51253;DHT22;38936;47.808;19.936;2022-09-13T12:09:22;24.40;50.50
51253;DHT22;38936;47.808;19.936;2022-09-13T12:14:31;23.90;50.90
51253;DHT22;38936;47.808;19.936;2022-09-13T12:17:03;23.70;50.70
51253;DHT22;38936;47.808;19.936;2022-09-13T12:19:44;23.70;51.70
51253;DHT22;38936;47.808;19.936;2022-09-13T12:22:12;23.60;51.50
51253;DHT22;38936;47.808;19.936;2022-09-13T12:24:49;23.60;51.20
51253;DHT22;38936;47.808;19.936;2022-09-13T12:27:44;23.70;51.60
51253;DHT22;38936;47.808;19.936;2022-09-13T12:30:18;23.70;50.50
51253;DHT22;38936;47.808;19.936;2022-09-13T12:32:45;23.60;52.10
51253;DHT22;38936;47.808;19.936;2022-09-13T12:43:37;23.60;52.10
51253;DHT22;38936;47.808;19.936;2022-09-13T12:57:13;23.50;51.30
51253;DHT22;38936;47.808;19.936;2022-09-13T13:00:20;23.40;51.40
51253;DHT22;38936;47.808;19.936;2022-09-13T13:05:39;23.20;52.80
51253;DHT22;38936;47.808;19.936;2022-09-13T13:08:25;23.20;53.60
51253;DHT22;38936;47.808;19.936;2022-09-13T13:13:33;23.10;53.30
51253;DHT22;38936;47.808;19.936;2022-09-13T13:16:04;23.10;53.00
51253;DHT22;38936;47.808;19.936;2022-09-13T13:18:43;23.00;52.80
51253;DHT22;38936;47.808;19.936;2022-09-13T13:21:23;23.00;52.90
51253;DHT22;38936;47.808;19.936;2022-09-13T13:36:50;23.60;53.40
51253;DHT22;38936;47.808;19.936;2022-09-13T13:41:58;23.80;53.40
51253;DHT22;38936;47.808;19.936;2022-09-13T14:16:16;23.60;54.70
51253;DHT22;38936;47.808;19.936;2022-09-13T14:24:43;23.00;55.20
51253;DHT22;38936;47.808;19.936;2022-09-13T14:27:29;22.80;55.50
51253;DHT22;38936;47.808;19.936;2022-09-13T14:30:01;22.70;56.10
51253;DHT22;38936;47.808;19.936;2022-09-13T14:32:31;22.50;56.00
51253;DHT22;38936;47.808;19.936;2022-09-13T14:35:06;22.60;56.30
51253;DHT22;38936;47.808;19.936;2022-09-13T14:37:35;22.60;56.20
51253;DHT22;38936;47.808;19.936;2022-09-13T14:40:15;22.70;56.10
51253;DHT22;38936;47.808;19.936;2022-09-13T14:42:47;22.80;56.40
51253;DHT22;38936;47.808;19.936;2022-09-13T14:45:14;22.80;56.70
51253;DHT22;38936;47.808;19.936;2022-09-13T14:47:54;22.80;57.00
51253;DHT22;38936;47.808;19.936;2022-09-13T14:50:28;22.80;56.40
51253;DHT22;38936;47.808;19.936;2022-09-13T14:53:04;22.80;56.70
51253;DHT22;38936;47.808;19.936;2022-09-13T14:55:41;22.80;56.70
51253;DHT22;38936;47.808;19.936;2022-09-13T14:58:15;22.70;57.60
51253;DHT22;38936;47.808;19.936;2022-09-13T15:00:50;22.60;58.00
51253;DHT22;38936;47.808;19.936;2022-09-13T15:03:18;22.50;57.60
51253;DHT22;38936;47.808;19.936;2022-09-13T15:05:57;22.50;58.10
51253;DHT22;38936;47.808;19.936;2022-09-13T15:11:03;22.50;58.10
51253;DHT22;38936;47.808;19.936;2022-09-13T15:13:30;22.50;58.40
51253;DHT22;38936;47.808;19.936;2022-09-13T15:15:56;22.50;58.60
51253;DHT22;38936;47.808;19.936;2022-09-13T15:18:25;22.50;57.90
51253;DHT22;38936;47.808;19.936;2022-09-13T15:20:54;22.50;58.20
51253;DHT22;38936;47.808;19.936;2022-09-13T15:26:09;22.40;59.20
51253;DHT22;38936;47.808;19.936;2022-09-13T15:31:33;22.30;59.00
51253;DHT22;38936;47.808;19.936;2022-09-13T15:39:25;22.30;59.50
51253;DHT22;38936;47.808;19.936;2022-09-13T15:41:53;22.30;59.20
51253;DHT22;38936;47.808;19.936;2022-09-13T15:44:19;22.20;59.50
51253;DHT22;38936;47.808;19.936;2022-09-13T15:46:49;22.20;59.70
51253;DHT22;38936;47.808;19.936;2022-09-13T15:49:19;22.10;59.90
51253;DHT22;38936;47.808;19.936;2022-09-13T15:51:45;22.10;59.70
51253;DHT22;38936;47.808;19.936;2022-09-13T15:54:13;22.00;59.90
51253;DHT22;38936;47.808;19.936;2022-09-13T15:56:42;22.00;60.20
51253;DHT22;38936;47.808;19.936;2022-09-13T15:59:16;21.90;60.10
51253;DHT22;38936;47.808;19.936;2022-09-13T16:01:43;21.80;60.90
51253;DHT22;38936;47.808;19.936;2022-09-13T16:04:10;21.70;61.00
51253;DHT22;38936;47.808;19.936;2022-09-13T16:06:37;21.70;61.70
51253;DHT22;38936;47.808;19.936;2022-09-13T16:09:23;21.60;61.20
51253;DHT22;38936;47.808;19.936;2022-09-13T16:11:50;21.50;61.50
51253;DHT22;38936;47.808;19.936;2022-09-13T16:14:17;21.50;61.60
51253;DHT22;38936;47.808;19.936;2022-09-13T16:16:44;21.40;61.90
51253;DHT22;38936;47.808;19.936;2022-09-13T16:19:16;21.40;62.50
51253;DHT22;38936;47.808;19.936;2022-09-13T16:21:42;21.40;62.80
51253;DHT22;38936;47.808;19.936;2022-09-13T16:24:08;21.30;63.30
51253;DHT22;38936;47.808;19.936;2022-09-13T16:26:34;21.30;63.20
51253;DHT22;38936;47.808;19.936;2022-09-13T16:28:59;21.20;62.90
51253;DHT22;38936;47.808;19.936;2022-09-13T16:31:25;21.10;62.90
51253;DHT22;38936;47.808;19.936;2022-09-13T16:33:51;21.10;63.20
51253;DHT22;38936;47.808;19.936;2022-09-13T16:36:16;21.10;63.60
51253;DHT22;38936;47.808;19.936;2022-09-13T16:38:42;21.10;63.60
51253;DHT22;38936;47.808;19.936;2022-09-13T16:41:08;21.10;63.40
51253;DHT22;38936;47.808;19.936;2022-09-13T16:43:34;21.00;63.60
51253;DHT22;38936;47.808;19.936;2022-09-13T16:46:07;20.90;63.50
51253;DHT22;38936;47.808;19.936;2022-09-13T16:48:34;20.90;64.00
51253;DHT22;38936;47.808;19.936;2022-09-13T16:51:04;20.80;64.20
51253;DHT22;38936;47.808;19.936;2022-09-13T16:53:31;20.70;64.90
51253;DHT22;38936;47.808;19.936;2022-09-13T16:56:12;20.70;65.30
51253;DHT22;38936;47.808;19.936;2022-09-13T16:58:40;20.60;65.70
51253;DHT22;38936;47.808;19.936;2022-09-13T17:01:08;20.50;65.70
51253;DHT22;38936;47.808;19.936;2022-09-13T17:03:34;20.40;66.00
51253;DHT22;38936;47.808;19.936;2022-09-13T17:06:12;20.40;66.30
51253;DHT22;38936;47.808;19.936;2022-09-13T17:08:40;20.30;66.50
51253;DHT22;38936;47.808;19.936;2022-09-13T17:11:08;20.30;66.90
51253;DHT22;38936;47.808;19.936;2022-09-13T17:13:35;20.30;67.30
51253;DHT22;38936;47.808;19.936;2022-09-13T17:16:02;20.20;67.50
51253;DHT22;38936;47.808;19.936;2022-09-13T17:18:27;20.20;67.90
51253;DHT22;38936;47.808;19.936;2022-09-13T17:20:53;20.10;68.10
51253;DHT22;38936;47.808;19.936;2022-09-13T17:23:19;20.10;68.60
51253;DHT22;38936;47.808;19.936;2022-09-13T17:25:47;20.00;69.10
51253;DHT22;38936;47.808;19.936;2022-09-13T17:28:15;20.00;69.50
51253;DHT22;38936;47.808;19.936;2022-09-13T17:30:41;20.00;70.20
51253;DHT22;38936;47.808;19.936;2022-09-13T17:33:07;19.90;70.60
51253;DHT22;38936;47.808;19.936;2022-09-13T17:35:34;19.80;71.20
51253;DHT22;38936;47.808;19.936;2022-09-13T17:38:01;19.80;71.90
51253;DHT22;38936;47.808;19.936;2022-09-13T17:40:28;19.70;72.50
51253;DHT22;38936;47.808;19.936;2022-09-13T17:42:55;19.70;73.10
51253;DHT22;38936;47.808;19.936;2022-09-13T17:45:21;19.50;73.60
51253;DHT22;38936;47.808;19.936;2022-09-13T17:47:47;19.40;74.10
51253;DHT22;38936;47.808;19.936;2022-09-13T17:50:13;19.30;74.70
51253;DHT22;38936;47.808;19.936;2022-09-13T17:52:39;19.20;76.50
51253;DHT22;38936;47.808;19.936;2022-09-13T17:55:05;19.10;77.10
51253;DHT22;38936;47.808;19.936;2022-09-13T17:57:31;19.00;77.60
51253;DHT22;38936;47.808;19.936;2022-09-13T17:59:57;18.90;78.70
51253;DHT22;38936;47.808;19.936;2022-09-13T18:02:23;18.80;79.00
51253;DHT22;38936;47.808;19.936;2022-09-13T18:04:50;18.70;79.90
51253;DHT22;38936;47.808;19.936;2022-09-13T18:07:16;18.60;80.90
51253;DHT22;38936;47.808;19.936;2022-09-13T18:09:42;18.60;81.80
51253;DHT22;38936;47.808;19.936;2022-09-13T18:12:09;18.60;82.40
51253;DHT22;38936;47.808;19.936;2022-09-13T18:14:36;18.60;83.00
51253;DHT22;38936;47.808;19.936;2022-09-13T18:17:02;18.60;84.20
51253;DHT22;38936;47.808;19.936;2022-09-13T18:19:35;18.50;85.60
51253;DHT22;38936;47.808;19.936;2022-09-13T18:22:00;18.50;87.40
51253;DHT22;38936;47.808;19.936;2022-09-13T18:24:26;18.40;88.40
51253;DHT22;38936;47.808;19.936;2022-09-13T18:26:52;18.40;89.60
51253;DHT22;38936;47.808;19.936;2022-09-13T18:29:17;18.40;90.60
51253;DHT22;38936;47.808;19.936;2022-09-13T18:31:43;18.30;91.60
51253;DHT22;38936;47.808;19.936;2022-09-13T18:34:11;18.20;92.50
51253;DHT22;38936;47.808;19.936;2022-09-13T18:36:37;18.10;93.40
51253;DHT22;38936;47.808;19.936;2022-09-13T18:39:04;18.10;94.30
51253;DHT22;38936;47.808;19.936;2022-09-13T18:41:33;18.00;95.60
51253;DHT22;38936;47.808;19.936;2022-09-13T18:43:59;17.90;96.40
51253;DHT22;38936;47.808;19.936;2022-09-13T18:46:27;17.80;97.40
51253;DHT22;38936;47.808;19.936;2022-09-13T18:48:54;17.70;98.40
51253;DHT22;38936;47.808;19.936;2022-09-13T18:51:41;17.60;99.00
51253;DHT22;38936;47.808;19.936;2022-09-13T18:54:11;17.60;99.90
51253;DHT22;38936;47.808;19.936;2022-09-13T18:56:37;17.60;99.90
51253;DHT22;38936;47.808;19.936;2022-09-13T18:59:05;17.50;99.90
51253;DHT22;38936;47.808;19.936;2022-09-13T19:01:33;17.40;99.90